Langley Air Force Base
KLFI : now visible

Airfield :











YOU CAN JOIN US ON...

 
LOGIN :

Register | Disclaimer

   EN    FR    IT 

 









Legend :    VFR   Marginal VFR   IFR   Intensive IFR   Very Intensive IFR
Visi :
Ceiling :
>= 8 km
>= 3000ft
5 to 8 km
1000 to 3000 ft
1500m to 5 km
500 to 1000 ft
800 to 1500m
200 to 500 ft
< 800m
< 200 ft
Symbols :   Thunderstorms  Fog  Heavy snow  Heavy precipitations  Wind > 20 kt







- Airport Elevation : 11 ft


KLFI - Langley Air Force Base

CURRENT METAR :
  • 201520Z 23017G28KT 10SM CLR 19/12 A2975 RMK SLP081 $

EXPIRED METARs :
  • 201515Z 22014G23KT 10SM FEW190 18/12 A2974 RMK SLP077 $
  • 201456Z 22014G22KT 10SM FEW033 18/12 A2974 RMK AO2A SLP077 T01810116 52028 $
  • 201356Z 23015G24KT 10SM SCT080 17/11 A2972 RMK AO2A SLP070 T01740107 $

TAF TAF KLFI
Valid from the 20 at 01:00 until the 21 at 07:00 UTC


200100Z 2001/2107 24012G25KT 8000 -SHRA BKN015 WS020/18050KT QNH2959INS
TEMPO 2001/2006 16035G50KT 3200 TSRA BKN005 OVC020CB
BECMG 2006/2007 19015G25KT 8000 RA OVC010 WS020/18060KT QNH2957INS
BECMG 2012/2013 20015KT 9999 NSW SCT030 QNH2970INS
BECMG 2102/2103 20010KT 9999 BKN030 QNH2987INS TX18/2001Z TN16/2100Z LAST NO AMDS AFT 2001 NEXT 2209
KZDC FIR / North America



MET'MAP, your aeronautical weather chart ! - Copyright ORBIFLY December 2007 - Disclaimer

ORBIFLY MET'MAP TEAM :

Programming & Development : Alexandra Zaïnal
Concept & Development : Baudouin d'Aumeries
Co-Development & Prog : Marc-Olivier Méhu
Technical & hardware support : Manuel Goepfert

Contact : metmap@orbifly.com




SOURCES & CREDITS :

   NOAA       Earth
Advisory